createdAt,value
2022-09-21T00:02:15.077Z,2.37
2022-09-21T00:04:42.259Z,1.77
2022-09-21T00:07:09.469Z,1.97
2022-09-21T00:09:36.666Z,2.13
2022-09-21T00:12:03.912Z,2.10
2022-09-21T00:14:32.594Z,2.40
2022-09-21T00:16:59.813Z,1.73
2022-09-21T00:19:27.319Z,2.03
2022-09-21T00:21:55.078Z,1.90
2022-09-21T00:24:22.318Z,1.63
2022-09-21T00:26:49.564Z,1.50
2022-09-21T00:29:17.112Z,1.90
2022-09-21T00:31:45.719Z,2.30
2022-09-21T00:34:12.985Z,1.90
2022-09-21T00:37:00.002Z,2.77
2022-09-21T00:39:45.629Z,2.20
2022-09-21T00:42:15.403Z,2.90
2022-09-21T00:44:42.658Z,2.30
2022-09-21T00:47:13.383Z,2.90
2022-09-21T00:49:41.474Z,2.07
2022-09-21T00:52:10.823Z,2.20
2022-09-21T00:54:40.055Z,1.83
2022-09-21T00:57:07.528Z,2.20
2022-09-21T00:59:36.721Z,1.90
2022-09-21T01:02:04.059Z,2.00
2022-09-21T01:04:33.173Z,2.03
2022-09-21T01:07:02.673Z,2.13
2022-09-21T01:09:29.980Z,2.00
2022-09-21T01:12:03.943Z,2.13
2022-09-21T01:14:39.191Z,2.00
2022-09-21T01:17:25.011Z,1.90
2022-09-21T01:20:25.599Z,2.20
2022-09-21T01:23:03.802Z,2.13
2022-09-21T01:25:36.206Z,2.00
2022-09-21T01:28:07.170Z,2.00
2022-09-21T01:30:36.960Z,1.90
2022-09-21T01:33:05.945Z,2.10
2022-09-21T01:35:40.642Z,2.33
2022-09-21T01:38:09.307Z,2.47
2022-09-21T01:40:38.974Z,2.13
2022-09-21T01:43:07.682Z,2.27
2022-09-21T01:45:41.812Z,1.90
2022-09-21T01:52:03.143Z,2.03
2022-09-21T01:54:33.220Z,2.30
2022-09-21T01:57:03.127Z,1.80
2022-09-21T01:59:33.906Z,1.77
2022-09-21T02:02:05.569Z,1.87
2022-09-21T02:04:34.823Z,2.30
2022-09-21T02:07:02.141Z,2.00
2022-09-21T02:09:29.739Z,2.00
2022-09-21T02:11:56.915Z,2.30
2022-09-21T02:14:25.425Z,2.00
2022-09-21T02:16:56.245Z,2.00
2022-09-21T02:19:31.213Z,2.53
2022-09-21T02:22:02.543Z,2.00
2022-09-21T02:24:33.874Z,1.93
2022-09-21T02:27:04.391Z,2.13
2022-09-21T02:29:35.571Z,2.00
2022-09-21T02:32:06.794Z,2.00
2022-09-21T02:37:12.570Z,2.23
2022-09-21T02:39:43.757Z,2.20
2022-09-21T02:42:13.097Z,2.33
2022-09-21T02:44:41.982Z,2.10
2022-09-21T02:47:11.364Z,2.40
2022-09-21T02:50:02.492Z,2.20
2022-09-21T02:52:51.542Z,1.67
2022-09-21T02:55:26.057Z,2.27
2022-09-21T02:57:54.223Z,1.83
2022-09-21T03:00:21.916Z,1.80
2022-09-21T03:02:49.146Z,1.97
2022-09-21T03:05:16.364Z,2.80
2022-09-21T03:07:43.575Z,1.93
2022-09-21T03:10:12.096Z,1.83
2022-09-21T03:12:40.690Z,1.63
2022-09-21T03:15:08.194Z,1.60
2022-09-21T03:17:35.523Z,1.97
2022-09-21T03:20:11.190Z,2.13
2022-09-21T03:22:56.799Z,3.23
2022-09-21T03:25:27.328Z,2.17
2022-09-21T03:27:56.123Z,1.70
2022-09-21T03:30:23.671Z,1.53
2022-09-21T03:32:51.254Z,1.97
2022-09-21T03:35:18.851Z,1.93
2022-09-21T03:37:46.336Z,1.60
2022-09-21T03:40:13.608Z,1.80
2022-09-21T03:42:41.119Z,1.80
2022-09-21T03:45:11.918Z,1.83
2022-09-21T03:47:39.817Z,2.00
2022-09-21T03:53:17.665Z,1.70
2022-09-21T03:55:44.978Z,2.10
2022-09-21T03:58:12.188Z,1.93
2022-09-21T04:00:40.857Z,1.87
2022-09-21T04:03:08.142Z,2.10
2022-09-21T04:05:35.398Z,2.00
2022-09-21T04:08:20.698Z,1.63
2022-09-21T04:10:47.893Z,1.97
2022-09-21T04:13:17.285Z,1.93
2022-09-21T04:15:45.919Z,1.80
2022-09-21T04:18:13.122Z,1.97
2022-09-21T04:21:11.255Z,1.73
2022-09-21T04:23:57.325Z,2.00
2022-09-21T04:26:25.739Z,2.13
2022-09-21T04:28:53.504Z,1.67
2022-09-21T04:31:22.390Z,1.93
2022-09-21T04:33:49.787Z,1.90
2022-09-21T04:36:17.249Z,1.90
2022-09-21T04:38:47.903Z,1.90
2022-09-21T04:41:15.936Z,2.23
2022-09-21T04:43:43.525Z,2.00
2022-09-21T04:46:11.537Z,1.87
2022-09-21T04:48:58.782Z,1.70
2022-09-21T04:51:44.771Z,1.90
2022-09-21T04:54:17.264Z,2.13
2022-09-21T04:56:44.524Z,1.83
2022-09-21T04:59:11.683Z,2.03
2022-09-21T05:01:38.957Z,1.50
2022-09-21T05:04:07.601Z,2.07
2022-09-21T05:06:34.951Z,1.60
2022-09-21T05:09:07.565Z,1.90
2022-09-21T05:11:34.795Z,2.03
2022-09-21T05:14:01.979Z,1.87
2022-09-21T05:16:29.227Z,1.90
2022-09-21T05:19:16.243Z,1.80
2022-09-21T05:22:03.447Z,2.23
2022-09-21T05:24:30.687Z,2.20
2022-09-21T05:26:57.915Z,1.83
2022-09-21T05:29:25.462Z,1.70
2022-09-21T05:31:55.047Z,2.23
2022-09-21T05:34:27.601Z,2.47
2022-09-21T05:39:44.440Z,2.43
2022-09-21T05:42:12.179Z,2.90
2022-09-21T05:44:39.710Z,3.07
2022-09-21T05:47:23.693Z,3.40
2022-09-21T05:49:54.532Z,4.07
2022-09-21T05:52:35.047Z,3.73
2022-09-21T05:59:05.354Z,3.47
2022-09-21T06:01:39.762Z,2.93
2022-09-21T06:04:10.420Z,4.60
2022-09-21T06:06:37.690Z,3.00
2022-09-21T06:09:04.878Z,2.70
2022-09-21T06:14:21.255Z,2.70
2022-09-21T06:16:50.067Z,2.40
2022-09-21T06:19:17.557Z,2.63
2022-09-21T06:21:44.934Z,2.27
2022-09-21T06:24:12.120Z,2.70
2022-09-21T06:26:48.337Z,2.63
2022-09-21T06:29:30.675Z,2.23
2022-09-21T06:32:18.819Z,2.97
2022-09-21T06:34:47.967Z,2.23
2022-09-21T06:37:15.290Z,2.90
2022-09-21T06:39:42.507Z,2.13
2022-09-21T06:42:28.857Z,2.20
2022-09-21T06:44:56.726Z,3.00
2022-09-21T06:47:25.254Z,3.00
2022-09-21T06:49:52.529Z,2.30
2022-09-21T06:52:19.735Z,2.53
2022-09-21T06:54:46.936Z,2.30
2022-09-21T06:57:14.155Z,2.87
2022-09-21T06:59:41.398Z,2.07
2022-09-21T07:02:09.794Z,3.13
2022-09-21T07:04:38.463Z,2.03
2022-09-21T07:07:05.705Z,3.10
2022-09-21T07:12:20.142Z,1.93
2022-09-21T07:14:47.406Z,1.83
2022-09-21T07:17:15.741Z,1.87
2022-09-21T07:19:44.485Z,1.73
2022-09-21T07:22:11.712Z,2.07
2022-09-21T07:24:39.114Z,1.87
2022-09-21T07:27:06.437Z,1.40
2022-09-21T07:29:33.906Z,2.30
2022-09-21T07:32:01.252Z,1.70
2022-09-21T07:34:28.467Z,1.70
2022-09-21T07:36:57.136Z,2.13
2022-09-21T07:39:24.318Z,2.23
2022-09-21T07:41:51.574Z,1.90
2022-09-21T07:44:18.755Z,1.67
2022-09-21T07:46:48.270Z,2.73
2022-09-21T07:49:15.647Z,1.80
2022-09-21T07:51:43.035Z,1.97
2022-09-21T07:54:11.970Z,3.00
2022-09-21T07:56:39.203Z,1.53
2022-09-21T07:59:06.430Z,1.87
2022-09-21T08:01:34.272Z,1.97
2022-09-21T08:04:01.866Z,1.50
2022-09-21T08:06:29.835Z,1.70
2022-09-21T08:08:58.144Z,1.70
2022-09-21T08:11:28.015Z,2.03
2022-09-21T08:13:56.252Z,1.77
2022-09-21T08:16:23.532Z,1.63
2022-09-21T08:18:50.813Z,1.80
2022-09-21T08:21:18.210Z,1.83
2022-09-21T08:23:45.510Z,1.50
2022-09-21T08:26:13.996Z,1.83
2022-09-21T08:28:42.635Z,1.80
2022-09-21T08:31:10.842Z,2.20
2022-09-21T08:33:38.371Z,1.87
2022-09-21T08:36:05.763Z,2.30
2022-09-21T08:38:33.434Z,1.80
2022-09-21T08:41:01.280Z,2.23
2022-09-21T08:43:32.538Z,2.00
2022-09-21T08:46:01.487Z,2.00
2022-09-21T08:48:36.439Z,1.70
2022-09-21T08:51:06.486Z,1.93
2022-09-21T08:53:35.184Z,1.97
2022-09-21T08:56:02.801Z,1.73
2022-09-21T08:58:31.005Z,2.10
2022-09-21T09:01:07.315Z,2.20
2022-09-21T09:03:48.976Z,1.80
2022-09-21T09:06:26.525Z,1.33
2022-09-21T09:09:03.656Z,2.20
2022-09-21T09:11:38.456Z,1.60
2022-09-21T09:14:13.447Z,1.30
2022-09-21T09:16:46.932Z,2.20
2022-09-21T09:19:20.068Z,1.73
2022-09-21T09:21:47.479Z,1.50
2022-09-21T09:24:17.155Z,1.50
2022-09-21T09:26:46.206Z,2.13
2022-09-21T09:29:17.454Z,2.83
2022-09-21T09:31:46.277Z,1.73
2022-09-21T09:34:15.290Z,2.00
2022-09-21T09:36:58.346Z,1.50
2022-09-21T09:39:27.382Z,1.80
2022-09-21T09:42:01.415Z,1.73
2022-09-21T09:44:34.065Z,1.50
2022-09-21T09:47:06.948Z,1.40
2022-09-21T09:49:39.298Z,2.03
2022-09-21T09:52:06.990Z,2.27
2022-09-21T09:54:35.114Z,1.33
2022-09-21T09:57:03.566Z,1.73
2022-09-21T09:59:33.064Z,1.57
2022-09-21T10:02:02.476Z,1.50
2022-09-21T10:04:31.238Z,1.80
2022-09-21T10:06:58.591Z,1.60
2022-09-21T10:09:26.936Z,1.77
2022-09-21T10:11:55.917Z,1.37
2022-09-21T10:14:24.637Z,1.57
2022-09-21T10:16:52.929Z,1.93
2022-09-21T10:19:22.485Z,1.53
2022-09-21T10:21:53.241Z,1.57
2022-09-21T10:24:22.606Z,1.53
2022-09-21T10:26:50.672Z,1.30
2022-09-21T10:29:19.164Z,1.53
2022-09-21T10:31:54.762Z,1.43
2022-09-21T10:34:22.012Z,1.90
2022-09-21T10:36:52.690Z,1.17
2022-09-21T10:39:20.860Z,1.57
2022-09-21T10:41:49.569Z,1.50
2022-09-21T10:44:17.383Z,1.60
2022-09-21T10:46:45.302Z,1.50
2022-09-21T10:49:15.786Z,1.17
2022-09-21T10:51:45.685Z,1.30
2022-09-21T10:54:17.962Z,1.10
2022-09-21T10:59:37.134Z,1.30
2022-09-21T11:02:24.597Z,1.37
2022-09-21T11:04:54.310Z,1.70
2022-09-21T11:07:24.958Z,1.50
2022-09-21T11:09:58.395Z,1.37
2022-09-21T11:12:47.445Z,1.30
2022-09-21T11:15:59.293Z,1.53
2022-09-21T11:18:38.895Z,1.07
2022-09-21T11:21:10.246Z,1.40
2022-09-21T11:23:42.908Z,1.30
2022-09-21T11:26:13.587Z,1.67
2022-09-21T11:28:44.202Z,1.33
2022-09-21T11:31:37.913Z,1.50
2022-09-21T11:34:23.811Z,1.60
2022-09-21T11:36:56.927Z,1.60
2022-09-21T11:39:29.566Z,1.47
2022-09-21T11:42:25.535Z,1.20
2022-09-21T11:45:27.626Z,1.13
2022-09-21T11:48:05.363Z,1.00
2022-09-21T11:50:39.840Z,1.40
2022-09-21T11:53:14.280Z,1.83
2022-09-21T11:55:46.918Z,1.37
2022-09-21T11:58:19.612Z,1.20
2022-09-21T12:00:52.512Z,1.33
2022-09-21T12:03:40.639Z,1.40
2022-09-21T12:06:18.382Z,1.17
2022-09-21T12:08:57.527Z,1.20
2022-09-21T12:11:29.970Z,1.30
2022-09-21T12:14:02.075Z,1.13
2022-09-21T12:16:34.463Z,1.70
2022-09-21T12:19:05.794Z,1.23
2022-09-21T12:21:35.778Z,1.70
2022-09-21T12:24:05.128Z,1.70
2022-09-21T12:26:35.019Z,1.30
2022-09-21T12:29:06.266Z,1.10
2022-09-21T12:31:57.732Z,1.17
2022-09-21T12:34:27.071Z,1.30
2022-09-21T12:36:59.349Z,1.23
2022-09-21T12:39:28.964Z,1.30
2022-09-21T12:42:17.810Z,1.87
2022-09-21T12:48:23.706Z,1.77
2022-09-21T12:50:53.142Z,1.60
2022-09-21T12:53:21.722Z,1.03
2022-09-21T12:55:51.504Z,1.30
2022-09-21T12:58:24.143Z,2.20
2022-09-21T13:00:57.611Z,1.50
2022-09-21T13:03:28.921Z,1.40
2022-09-21T13:06:06.749Z,1.13
2022-09-21T13:08:36.057Z,1.30
2022-09-21T13:11:08.522Z,1.13
2022-09-21T13:13:55.570Z,1.10
2022-09-21T13:16:30.380Z,1.70
2022-09-21T13:19:00.390Z,1.40
2022-09-21T13:21:28.960Z,1.77
2022-09-21T13:23:57.230Z,1.87
2022-09-21T13:26:38.038Z,1.50
2022-09-21T13:29:07.519Z,1.40
2022-09-21T13:31:42.744Z,1.60
2022-09-21T13:34:21.367Z,1.60
2022-09-21T13:37:03.479Z,1.03
2022-09-21T13:39:30.762Z,1.33
2022-09-21T13:42:03.260Z,1.50
2022-09-21T13:44:43.964Z,1.03
2022-09-21T13:47:29.689Z,0.97
2022-09-21T13:50:24.035Z,1.47
2022-09-21T13:52:54.008Z,1.17
2022-09-21T13:55:24.451Z,1.20
2022-09-21T13:57:53.238Z,1.20
2022-09-21T14:00:32.790Z,1.67
2022-09-21T14:03:01.289Z,2.37
2022-09-21T14:05:40.198Z,2.33
2022-09-21T14:08:08.498Z,1.47
2022-09-21T14:10:37.049Z,2.20
2022-09-21T14:13:07.210Z,1.93
2022-09-21T14:15:53.234Z,1.57
2022-09-21T14:18:51.647Z,1.90
2022-09-21T14:21:26.487Z,1.80
2022-09-21T14:24:10.407Z,2.13
2022-09-21T14:26:47.142Z,1.70
2022-09-21T14:29:23.432Z,1.80
2022-09-21T14:31:53.424Z,2.17
2022-09-21T14:34:32.471Z,1.47
2022-09-21T14:37:03.697Z,2.23
2022-09-21T14:39:32.585Z,1.80
2022-09-21T14:42:01.718Z,2.10
2022-09-21T14:44:39.678Z,1.70
2022-09-21T14:51:02.986Z,1.60
2022-09-21T14:53:39.381Z,1.53
2022-09-21T14:56:12.412Z,1.93
2022-09-21T14:58:47.873Z,2.10
2022-09-21T15:01:23.002Z,2.07
2022-09-21T15:06:41.879Z,2.20
2022-09-21T15:09:22.096Z,2.17
2022-09-21T15:11:54.144Z,1.97
2022-09-21T15:14:23.210Z,1.70
2022-09-21T15:16:51.474Z,1.90
2022-09-21T15:19:40.593Z,1.90
2022-09-21T15:22:30.098Z,1.97
2022-09-21T15:25:13.414Z,2.03
2022-09-21T15:27:43.267Z,1.90
2022-09-21T15:30:19.279Z,1.90
2022-09-21T15:32:48.013Z,1.93
2022-09-21T15:35:17.938Z,1.73
2022-09-21T15:37:45.626Z,1.53
2022-09-21T15:40:19.819Z,2.03
2022-09-21T15:42:58.794Z,1.87
2022-09-21T15:45:26.991Z,1.50
2022-09-21T15:47:54.286Z,1.60
2022-09-21T15:50:22.221Z,1.53
2022-09-21T15:52:51.639Z,1.40
2022-09-21T15:55:40.747Z,1.60
2022-09-21T15:58:27.937Z,1.40
2022-09-21T16:00:55.977Z,1.50
2022-09-21T16:03:24.691Z,1.30
2022-09-21T16:05:52.842Z,1.40
2022-09-21T16:08:28.280Z,1.37
2022-09-21T16:11:11.801Z,1.30
2022-09-21T16:13:46.649Z,1.50
2022-09-21T16:16:14.694Z,1.50
2022-09-21T16:18:42.860Z,1.30
2022-09-21T16:21:15.085Z,1.40
2022-09-21T16:30:38.702Z,1.33
2022-09-21T16:33:20.842Z,1.57
2022-09-21T16:35:48.033Z,1.80
2022-09-21T16:38:15.615Z,1.10
2022-09-21T16:40:42.930Z,1.37
2022-09-21T16:46:01.383Z,1.30
2022-09-21T16:48:28.710Z,1.40
2022-09-21T16:50:55.942Z,1.57
2022-09-21T16:53:23.413Z,1.63
2022-09-21T16:55:50.692Z,1.30
2022-09-21T17:01:33.889Z,1.40
2022-09-21T17:04:07.746Z,1.90
2022-09-21T17:06:35.071Z,1.60
2022-09-21T17:09:02.928Z,1.30
2022-09-21T17:11:30.146Z,1.67
2022-09-21T17:14:03.274Z,1.53
2022-09-21T17:16:30.536Z,1.50
2022-09-21T17:18:57.750Z,1.13
2022-09-21T17:21:26.397Z,1.60
2022-09-21T17:23:53.630Z,1.90
2022-09-21T17:26:20.864Z,1.93
2022-09-21T17:28:48.141Z,1.73
2022-09-21T17:31:16.402Z,1.83
2022-09-21T17:33:43.782Z,1.63
2022-09-21T17:36:13.619Z,1.60
2022-09-21T17:38:42.326Z,1.50
2022-09-21T17:41:15.743Z,1.70
2022-09-21T17:43:45.318Z,1.63
2022-09-21T17:46:16.921Z,1.70
2022-09-21T17:48:44.383Z,1.80
2022-09-21T17:51:12.001Z,2.10
2022-09-21T17:53:39.419Z,2.20
2022-09-21T17:56:18.566Z,1.80
2022-09-21T17:58:48.730Z,1.83
2022-09-21T18:01:23.638Z,1.90
2022-09-21T18:03:51.230Z,2.30
2022-09-21T18:06:18.629Z,2.57
2022-09-21T18:08:45.990Z,2.10
2022-09-21T18:11:33.391Z,2.20
2022-09-21T18:14:04.244Z,2.03
2022-09-21T18:16:35.003Z,2.20
2022-09-21T18:19:05.099Z,1.90
2022-09-21T18:21:34.334Z,2.00
2022-09-21T18:24:18.911Z,2.00
2022-09-21T18:26:48.031Z,2.80
2022-09-21T18:29:38.836Z,2.30
2022-09-21T18:32:24.751Z,2.70
2022-09-21T18:35:05.712Z,3.40
2022-09-21T18:37:35.303Z,3.20
2022-09-21T18:40:08.014Z,2.47
2022-09-21T18:42:40.935Z,3.10
2022-09-21T18:45:11.484Z,3.67
2022-09-21T18:47:42.053Z,3.50
2022-09-21T18:50:18.205Z,3.97
2022-09-21T18:52:51.111Z,3.93
2022-09-21T18:55:22.616Z,3.90
2022-09-21T18:57:51.794Z,3.53
2022-09-21T19:00:19.817Z,3.43
2022-09-21T19:03:05.446Z,3.33
2022-09-21T19:05:35.006Z,3.90
2022-09-21T19:08:08.512Z,3.80
2022-09-21T19:10:36.992Z,3.40
2022-09-21T19:13:11.182Z,2.80
2022-09-21T19:16:00.350Z,2.87
2022-09-21T19:18:32.419Z,2.80
2022-09-21T19:21:06.060Z,2.87
2022-09-21T19:23:40.982Z,2.70
2022-09-21T19:26:12.950Z,2.57
2022-09-21T19:28:50.391Z,2.30
2022-09-21T19:31:18.714Z,2.30
2022-09-21T19:33:50.481Z,2.23
2022-09-21T19:36:18.946Z,2.70
2022-09-21T19:38:46.284Z,2.33
2022-09-21T19:41:20.620Z,2.97
2022-09-21T19:43:53.575Z,3.10
2022-09-21T19:46:25.297Z,2.30
2022-09-21T19:48:54.834Z,2.10
2022-09-21T19:51:28.295Z,1.97
2022-09-21T19:53:56.581Z,3.03
2022-09-21T19:56:23.966Z,2.60
2022-09-21T19:58:52.943Z,2.43
2022-09-21T20:01:21.781Z,2.57
2022-09-21T20:03:49.295Z,2.60
2022-09-21T20:06:19.081Z,2.97
2022-09-21T20:08:50.923Z,2.70
2022-09-21T20:11:20.200Z,2.60
2022-09-21T20:14:00.091Z,2.67
2022-09-21T20:16:33.690Z,2.87
2022-09-21T20:19:02.187Z,2.70
2022-09-21T20:21:34.294Z,2.80
2022-09-21T20:24:02.146Z,3.40
2022-09-21T20:26:29.487Z,2.73
2022-09-21T20:28:58.433Z,2.93
2022-09-21T20:31:26.264Z,3.47
2022-09-21T20:33:53.573Z,3.57
2022-09-21T20:36:22.913Z,3.40
2022-09-21T20:38:50.107Z,3.83
2022-09-21T20:41:17.489Z,3.53
2022-09-21T20:43:44.686Z,3.40
2022-09-21T20:46:13.330Z,3.20
2022-09-21T20:48:40.774Z,3.20
2022-09-21T20:51:08.044Z,3.30
2022-09-21T20:53:35.315Z,3.80
2022-09-21T20:56:02.583Z,3.30
2022-09-21T20:58:30.107Z,3.10
2022-09-21T21:01:02.882Z,2.97
2022-09-21T21:03:31.503Z,3.23
2022-09-21T21:06:07.354Z,3.03
2022-09-21T21:08:34.723Z,2.80
2022-09-21T21:11:01.918Z,2.73
2022-09-21T21:13:29.612Z,3.30
2022-09-21T21:15:56.945Z,2.83
2022-09-21T21:18:24.255Z,2.80
2022-09-21T21:20:52.852Z,2.90
2022-09-21T21:23:20.044Z,2.80
2022-09-21T21:25:47.254Z,2.77
2022-09-21T21:28:14.449Z,3.00
2022-09-21T21:30:41.633Z,3.97
2022-09-21T21:33:08.847Z,2.80
2022-09-21T21:35:36.046Z,3.80
2022-09-21T21:38:04.696Z,3.10
2022-09-21T21:40:31.933Z,3.63
2022-09-21T21:42:59.263Z,3.53
2022-09-21T21:45:26.447Z,3.37
2022-09-21T21:47:55.047Z,3.50
2022-09-21T21:50:22.295Z,3.00
2022-09-21T21:52:49.477Z,2.50
2022-09-21T21:55:18.023Z,3.33
2022-09-21T21:57:45.266Z,3.43
2022-09-21T22:00:13.430Z,3.40
2022-09-21T22:02:40.798Z,3.73
2022-09-21T22:05:08.302Z,2.63
2022-09-21T22:07:35.474Z,3.40
2022-09-21T22:10:02.676Z,3.17
2022-09-21T22:12:31.271Z,3.10
2022-09-21T22:14:58.445Z,2.90
2022-09-21T22:17:25.642Z,2.90
2022-09-21T22:19:52.838Z,2.80
2022-09-21T22:22:20.107Z,2.80
2022-09-21T22:24:47.389Z,3.10
2022-09-21T22:27:14.563Z,3.53
2022-09-21T22:29:43.111Z,3.23
2022-09-21T22:32:10.506Z,3.00
2022-09-21T22:34:37.690Z,2.60
2022-09-21T22:37:04.948Z,2.80
2022-09-21T22:39:32.126Z,2.80
2022-09-21T22:41:59.361Z,3.43
2022-09-21T22:44:26.556Z,2.73
2022-09-21T22:46:55.110Z,2.67
2022-09-21T22:49:22.356Z,2.40
2022-09-21T22:51:49.511Z,2.87
2022-09-21T22:54:16.772Z,3.03
2022-09-21T22:56:43.970Z,2.60
2022-09-21T22:59:11.142Z,2.70
2022-09-21T23:01:39.494Z,2.60
2022-09-21T23:04:09.159Z,3.43
2022-09-21T23:06:37.181Z,2.60
2022-09-21T23:09:06.054Z,2.80
2022-09-21T23:11:34.292Z,2.50
2022-09-21T23:14:01.572Z,2.43
2022-09-21T23:16:31.268Z,2.93
2022-09-21T23:18:58.668Z,2.80
2022-09-21T23:21:27.967Z,3.67
2022-09-21T23:23:55.736Z,3.67
2022-09-21T23:26:23.598Z,2.80
2022-09-21T23:28:51.739Z,2.97
2022-09-21T23:31:19.272Z,2.30
2022-09-21T23:33:47.936Z,3.00
2022-09-21T23:36:16.394Z,2.90
2022-09-21T23:38:45.397Z,2.90
2022-09-21T23:41:13.377Z,2.97
2022-09-21T23:43:46.134Z,3.37
2022-09-21T23:46:14.514Z,2.70
2022-09-21T23:48:42.473Z,2.90
2022-09-21T23:51:09.739Z,2.83
2022-09-21T23:53:59.563Z,3.27
2022-09-21T23:56:46.178Z,3.20
2022-09-21T23:59:31.522Z,3.10
